Time;durP1;ratioP1;P1;durP2;ratioP2;P2;SDS_P1;SDS_P2;PMS_P1;PMS_P2;Temp;Humidity;BMP_temperature;BMP_pressure;BME280_temperature;BME280_humidity;BME280_pressure;Samples;Min_cycle;Max_cycle;Signal;HPM_P1;HPM_P2
2022/05/15 00:02:20;;;;;;;7.80;4.13;;;;;;;15.42;74.79;94800.22;5050463;28;20206;-76
2022/05/15 00:04:47;;;;;;;8.50;4.07;;;;;;;15.26;74.35;94797.50;5040708;28;20196;-76
2022/05/15 00:07:15;;;;;;;6.28;3.60;;;;;;;15.24;74.13;94797.06;5043826;28;20228;-76
2022/05/15 00:09:43;;;;;;;5.22;3.55;;;;;;;15.13;74.79;94812.38;5041004;28;20212;-77
2022/05/15 00:12:11;;;;;;;5.50;3.70;;;;;;;15.07;74.65;94809.13;5049824;28;20310;-76
2022/05/15 00:14:37;;;;;;;5.82;4.40;;;;;;;15.02;74.63;94805.88;5038962;28;20293;-76
2022/05/15 00:17:05;;;;;;;6.75;3.05;;;;;;;14.90;74.89;94799.31;5042934;28;20204;-77
2022/05/15 00:19:32;;;;;;;7.57;3.60;;;;;;;14.98;74.84;94804.97;5040510;28;20251;-78
2022/05/15 00:21:59;;;;;;;4.63;3.20;;;;;;;14.94;74.83;94794.75;5049820;28;20226;-77
2022/05/15 00:24:28;;;;;;;6.70;3.92;;;;;;;15.04;74.59;94796.16;5038418;28;20200;-77
2022/05/15 00:26:55;;;;;;;10.98;4.00;;;;;;;15.04;74.73;94795.38;5043097;28;20752;-77
2022/05/15 00:29:22;;;;;;;4.82;3.50;;;;;;;15.07;74.83;94800.13;5030244;28;20287;-77
2022/05/15 00:31:49;;;;;;;6.32;3.67;;;;;;;15.06;74.73;94796.63;5042942;28;20200;-77
2022/05/15 00:34:16;;;;;;;8.55;3.80;;;;;;;14.98;74.96;94802.25;5041173;28;20235;-77
2022/05/15 00:36:43;;;;;;;7.95;4.57;;;;;;;14.88;75.22;94796.19;5045219;28;20200;-77
2022/05/15 00:39:10;;;;;;;7.80;3.65;;;;;;;14.77;75.69;94799.75;5046171;28;20199;-77
2022/05/15 00:41:39;;;;;;;6.70;3.78;;;;;;;14.72;75.53;94803.53;5039743;28;20207;-77
2022/05/15 00:44:08;;;;;;;4.75;3.45;;;;;;;14.72;75.75;94803.53;5061983;28;20199;-78
2022/05/15 00:46:38;;;;;;;7.10;4.72;;;;;;;14.69;75.95;94801.50;5053473;28;20239;-77
2022/05/15 00:49:07;;;;;;;6.05;3.22;;;;;;;14.61;76.12;94801.69;5052781;28;20220;-77
2022/05/15 00:51:43;;;;;;;4.10;3.47;;;;;;;14.49;76.70;94797.06;5042074;28;20614;-77
2022/05/15 00:54:15;;;;;;;4.97;3.40;;;;;;;14.47;76.60;94802.09;5040132;28;20215;-77
2022/05/15 00:56:49;;;;;;;5.57;3.35;;;;;;;14.41;77.00;94811.63;5043060;28;20339;-77
2022/05/15 00:59:19;;;;;;;5.43;3.38;;;;;;;14.36;76.98;94803.66;5047892;28;20358;-77
2022/05/15 01:01:46;;;;;;;6.63;3.53;;;;;;;14.31;77.40;94798.47;5046335;28;20828;-77
2022/05/15 01:04:13;;;;;;;7.15;3.47;;;;;;;14.26;77.47;94801.44;5053456;28;20670;-78
2022/05/15 01:06:43;;;;;;;8.40;3.88;;;;;;;14.23;77.60;94797.47;5041645;28;20216;-77
2022/05/15 01:09:11;;;;;;;7.15;3.28;;;;;;;14.27;77.89;94803.03;5053626;28;20203;-77
2022/05/15 01:11:39;;;;;;;7.57;3.67;;;;;;;14.10;78.02;94794.00;5040714;28;20208;-77
2022/05/15 01:14:12;;;;;;;5.97;3.38;;;;;;;14.02;78.13;94808.56;5046673;28;20224;-77
2022/05/15 01:16:40;;;;;;;7.03;3.70;;;;;;;14.01;78.78;94801.53;5034719;28;20554;-77
2022/05/15 01:19:07;;;;;;;5.65;3.25;;;;;;;13.98;78.74;94798.69;5045422;28;20208;-77
2022/05/15 01:21:38;;;;;;;7.90;3.97;;;;;;;13.97;78.78;94799.81;5046829;28;20207;-77
2022/05/15 01:24:07;;;;;;;5.10;3.72;;;;;;;13.93;78.72;94799.75;5033246;28;20188;-76
2022/05/15 01:26:37;;;;;;;6.38;4.70;;;;;;;13.97;78.60;94802.56;5046655;28;20200;-77
2022/05/15 01:29:05;;;;;;;6.70;3.83;;;;;;;13.95;78.55;94802.88;5042772;28;20208;-77
2022/05/15 01:31:33;;;;;;;6.60;4.25;;;;;;;13.94;78.57;94797.81;5040452;28;20200;-77
2022/05/15 01:33:59;;;;;;;6.93;3.78;;;;;;;13.91;78.24;94802.00;5043069;28;20239;-77
2022/05/15 01:36:27;;;;;;;6.35;3.40;;;;;;;13.89;78.27;94798.84;5049843;28;20200;-77
2022/05/15 01:38:56;;;;;;;5.75;3.33;;;;;;;13.76;78.47;94800.78;5052901;28;20231;-77
2022/05/15 01:41:24;;;;;;;7.38;3.67;;;;;;;13.81;77.98;94802.47;5052917;28;20206;-77
2022/05/15 01:43:53;;;;;;;3.67;3.03;;;;;;;13.83;77.71;94800.19;5041575;28;20223;-77
2022/05/15 01:46:22;;;;;;;4.93;3.22;;;;;;;13.82;77.51;94793.16;5051674;28;20243;-77
2022/05/15 01:48:49;;;;;;;8.07;3.60;;;;;;;13.82;77.14;94802.13;5052213;28;20985;-77
2022/05/15 01:51:16;;;;;;;6.93;3.40;;;;;;;13.69;77.39;94799.75;5053194;28;20235;-77
2022/05/15 01:53:44;;;;;;;4.90;2.83;;;;;;;13.88;75.37;94791.81;5040594;28;20204;-77
2022/05/15 01:56:13;;;;;;;6.28;3.05;;;;;;;13.99;75.15;94806.53;5046401;28;20282;-77
2022/05/15 01:58:40;;;;;;;4.82;3.22;;;;;;;13.92;75.15;94802.81;5045674;28;20756;-78
2022/05/15 02:01:08;;;;;;;5.30;3.47;;;;;;;14.02;74.57;94803.13;5039925;28;20242;-77
2022/05/15 02:03:35;;;;;;;6.30;3.38;;;;;;;13.98;74.25;94796.75;5052788;28;20204;-77
2022/05/15 02:06:03;;;;;;;6.55;3.00;;;;;;;13.97;74.62;94797.91;5045037;28;20220;-77
2022/05/15 02:08:31;;;;;;;8.05;3.60;;;;;;;13.93;74.56;94788.84;5045881;28;20686;-77
2022/05/15 02:11:00;;;;;;;6.25;3.75;;;;;;;13.96;74.46;94793.59;5040630;28;20570;-77
2022/05/15 02:13:29;;;;;;;5.07;3.42;;;;;;;14.12;73.09;94794.44;5039580;28;20200;-77
2022/05/15 02:15:56;;;;;;;3.30;2.78;;;;;;;14.20;72.50;94798.19;5044553;28;20319;-76
2022/05/15 02:18:23;;;;;;;4.35;2.70;;;;;;;14.21;72.22;94800.53;5045753;28;20200;-77
2022/05/15 02:20:50;;;;;;;3.20;2.45;;;;;;;14.19;71.92;94797.38;5041077;28;20211;-77
2022/05/15 02:23:17;;;;;;;4.72;3.17;;;;;;;14.18;72.21;94798.53;5052465;28;20204;-77
2022/05/15 02:25:44;;;;;;;4.00;2.47;;;;;;;14.29;71.38;94800.75;5051899;28;20600;-77
2022/05/15 02:28:11;;;;;;;6.32;2.80;;;;;;;14.34;71.07;94800.53;5038582;28;20642;-76
2022/05/15 02:30:40;;;;;;;2.80;2.13;;;;;;;14.64;69.47;94807.22;5043074;28;20200;-73
2022/05/15 02:33:07;;;;;;;3.20;2.70;;;;;;;14.62;69.65;94801.34;5045431;28;20224;-74
2022/05/15 02:35:34;;;;;;;7.05;2.60;;;;;;;14.65;69.32;94808.78;5032363;28;20577;-75
2022/05/15 02:38:01;;;;;;;4.05;2.45;;;;;;;14.62;69.71;94820.41;5048446;28;20216;-75
2022/05/15 02:40:28;;;;;;;3.72;2.60;;;;;;;14.68;69.15;94813.56;5052078;28;20206;-75
2022/05/15 02:42:56;;;;;;;6.60;3.25;;;;;;;14.65;69.31;94808.00;5051237;28;20576;-75
2022/05/15 02:45:23;;;;;;;9.52;3.03;;;;;;;14.67;69.27;94801.06;5061086;28;20572;-76
2022/05/15 02:47:52;;;;;;;6.47;3.33;;;;;;;14.49;69.99;94810.69;5047983;28;20662;-76
2022/05/15 02:53:04;;;;;;;4.80;2.78;;;;;;;14.38;70.47;94815.03;5039257;28;20190;-75
2022/05/15 02:55:31;;;;;;;4.22;2.60;;;;;;;14.38;70.87;94815.03;5051763;28;20231;-75
2022/05/15 02:57:58;;;;;;;3.83;2.45;;;;;;;14.27;70.87;94813.94;5051776;28;20199;-76
2022/05/15 03:00:27;;;;;;;5.53;2.72;;;;;;;14.14;71.99;94824.06;5051930;28;20199;-76
2022/05/15 03:02:56;;;;;;;4.97;3.13;;;;;;;14.18;71.19;94817.59;5043564;28;20207;-76
2022/05/15 03:05:23;;;;;;;4.72;2.92;;;;;;;14.15;71.42;94823.72;5045156;28;20243;-76
2022/05/15 03:07:50;;;;;;;3.63;3.25;;;;;;;14.08;72.02;94828.16;5039856;28;20212;-77
2022/05/15 03:10:21;;;;;;;5.38;2.70;;;;;;;14.06;72.08;94831.25;5038273;28;20291;-76
2022/05/15 03:12:48;;;;;;;5.20;2.80;;;;;;;14.12;72.67;94829.88;5042498;28;20276;-77
2022/05/15 03:15:15;;;;;;;3.22;2.42;;;;;;;14.15;72.27;94831.91;5034141;28;20228;-77
2022/05/15 03:17:43;;;;;;;6.90;3.08;;;;;;;14.44;71.70;94824.56;5042019;28;20566;-77
2022/05/15 03:20:14;;;;;;;5.60;3.60;;;;;;;14.93;70.53;94831.38;5048156;28;20212;-77
2022/05/15 03:22:41;;;;;;;6.47;3.58;;;;;;;15.60;68.09;94826.81;5040805;28;20207;-77
2022/05/15 03:25:09;;;;;;;4.13;2.65;;;;;;;16.10;65.57;94803.38;5044494;28;20209;-77
2022/05/15 03:27:36;;;;;;;3.00;2.40;;;;;;;16.66;64.08;94816.66;5041737;28;20222;-77
2022/05/15 03:30:04;;;;;;;7.57;3.00;;;;;;;17.48;61.87;94824.38;5037663;28;20249;-77
2022/05/15 03:32:31;;;;;;;5.63;3.42;;;;;;;18.35;60.28;94815.09;5039312;28;20224;-78
2022/05/15 03:34:58;;;;;;;4.75;3.30;;;;;;;18.72;58.30;94806.19;5043436;28;20630;-77
2022/05/15 03:37:26;;;;;;;5.38;3.47;;;;;;;19.52;56.95;94823.88;5042481;28;20230;-77
2022/05/15 03:39:54;;;;;;;6.20;3.65;;;;;;;19.77;56.50;94819.38;5032116;28;20208;-77
2022/05/15 03:42:22;;;;;;;4.47;2.92;;;;;;;20.13;54.95;94819.59;5043310;28;20200;-78
2022/05/15 03:44:49;;;;;;;8.40;2.72;;;;;;;20.65;53.62;94801.03;5056827;28;20191;-78
2022/05/15 03:47:15;;;;;;;5.15;2.80;;;;;;;21.31;51.19;94810.69;5036825;28;20196;-78
2022/05/15 03:49:43;;;;;;;7.72;3.38;;;;;;;22.00;50.22;94812.31;5046059;28;20195;-77
2022/05/15 03:52:10;;;;;;;4.30;2.60;;;;;;;22.03;50.18;94805.97;5043401;28;20219;-78
2022/05/15 03:54:41;;;;;;;5.93;2.85;;;;;;;22.40;48.69;94805.53;5044057;28;20609;-77
2022/05/15 03:57:08;;;;;;;3.88;2.95;;;;;;;22.86;47.52;94803.41;5049540;28;20199;-78
2022/05/15 03:59:39;;;;;;;3.05;2.72;;;;;;;23.15;46.13;94792.97;5047255;28;20192;-76
2022/05/15 04:02:09;;;;;;;5.10;3.70;;;;;;;23.46;45.90;94801.47;5040498;28;20203;-78
2022/05/15 04:04:38;;;;;;;7.93;4.05;;;;;;;24.22;45.36;94809.53;5049290;28;20227;-78
2022/05/15 04:07:06;;;;;;;7.85;4.78;;;;;;;23.62;46.36;94808.13;5049371;28;20231;-78
2022/05/15 04:09:33;;;;;;;6.25;4.63;;;;;;;23.16;47.71;94816.66;5044513;28;20601;-79
2022/05/15 04:12:02;;;;;;;4.97;4.47;;;;;;;23.11;48.37;94819.84;5047463;28;20203;-79
2022/05/15 04:14:29;;;;;;;8.32;5.47;;;;;;;23.63;47.76;94815.22;5036758;28;20199;-79
2022/05/15 04:16:56;;;;;;;7.03;4.95;;;;;;;23.74;46.66;94824.22;5046283;28;20234;-78
2022/05/15 04:19:24;;;;;;;6.40;5.30;;;;;;;23.60;46.95;94824.31;5050092;28;20200;-79
2022/05/15 04:21:51;;;;;;;8.05;5.35;;;;;;;24.98;44.95;94821.44;5034949;28;20618;-79
2022/05/15 04:24:19;;;;;;;8.05;5.03;;;;;;;25.11;43.86;94819.69;5039723;28;20871;-79
2022/05/15 04:26:47;;;;;;;8.27;5.35;;;;;;;24.98;43.67;94824.22;5034597;28;20211;-79
2022/05/15 04:29:16;;;;;;;8.23;5.03;;;;;;;24.89;44.17;94830.22;5040090;28;20200;-79
2022/05/15 04:31:43;;;;;;;9.88;5.57;;;;;;;24.16;45.35;94832.56;5037055;28;20231;-80
2022/05/15 04:34:10;;;;;;;8.40;5.22;;;;;;;25.54;43.58;94824.63;5039565;28;20204;-80
2022/05/15 04:36:37;;;;;;;10.65;5.95;;;;;;;26.00;42.51;94829.47;5042333;28;20224;-80
2022/05/15 04:39:05;;;;;;;8.55;5.35;;;;;;;26.56;41.19;94816.59;5042593;28;20212;-80
2022/05/15 04:41:33;;;;;;;7.47;4.93;;;;;;;26.45;40.72;94824.34;5050081;28;20214;-81
2022/05/15 04:44:00;;;;;;;9.98;5.20;;;;;;;27.59;39.53;94809.72;5059049;28;20219;-80
2022/05/15 04:46:29;;;;;;;7.22;4.95;;;;;;;26.97;39.61;94824.56;5051375;28;20283;-81
2022/05/15 04:48:57;;;;;;;6.30;4.88;;;;;;;27.21;39.30;94817.69;5050815;28;20607;-81
2022/05/15 04:51:24;;;;;;;6.63;4.70;;;;;;;27.94;37.99;94818.44;5036779;28;20203;-86
2022/05/15 04:53:51;;;;;;;7.18;4.78;;;;;;;28.16;37.63;94825.03;5037642;28;20255;-83
2022/05/15 04:56:19;;;;;;;7.18;4.57;;;;;;;28.26;36.33;94818.47;5037811;28;20735;-88
2022/05/15 04:58:46;;;;;;;6.35;4.75;;;;;;;29.62;35.17;94821.06;5036834;28;20212;-76
2022/05/15 05:01:13;;;;;;;8.27;4.95;;;;;;;27.68;37.66;94833.41;5042789;28;20211;-75
2022/05/15 05:03:42;;;;;;;7.30;4.90;;;;;;;27.82;37.79;94819.16;5043043;28;20220;-77
2022/05/15 05:06:09;;;;;;;8.10;4.55;;;;;;;28.83;35.08;94822.56;5038278;28;20234;-79
2022/05/15 05:08:36;;;;;;;8.57;4.70;;;;;;;28.07;37.50;94822.09;5036593;28;20781;-77
2022/05/15 05:11:03;;;;;;;7.75;4.30;;;;;;;28.13;36.55;94830.72;5042096;28;20208;-80
2022/05/15 05:13:29;;;;;;;8.60;4.43;;;;;;;28.03;37.14;94832.53;5043159;28;20212;-79
2022/05/15 05:15:56;;;;;;;6.78;4.95;;;;;;;28.20;36.95;94830.56;5038080;28;20231;-75
2022/05/15 05:18:23;;;;;;;6.75;4.97;;;;;;;27.46;38.49;94831.09;5036472;28;20602;-77
2022/05/15 05:20:52;;;;;;;6.95;5.03;;;;;;;27.50;38.57;94828.19;5041706;28;20196;-83
2022/05/15 05:23:18;;;;;;;6.07;4.95;;;;;;;28.08;37.78;94828.47;5046545;28;20200;-76
2022/05/15 05:25:45;;;;;;;6.30;4.90;;;;;;;28.53;36.90;94825.75;5045088;28;20208;-78
2022/05/15 05:28:12;;;;;;;7.82;5.07;;;;;;;30.07;35.53;94818.03;5047201;28;20287;-74
2022/05/15 05:30:39;;;;;;;6.03;4.53;;;;;;;29.97;34.89;94824.78;5041656;28;20220;-74
2022/05/15 05:33:07;;;;;;;7.07;4.60;;;;;;;30.02;34.36;94824.22;5040127;28;20200;-75
2022/05/15 05:35:35;;;;;;;5.68;4.40;;;;;;;30.48;33.83;94819.09;5050813;28;20259;-77
2022/05/15 05:38:04;;;;;;;4.72;4.20;;;;;;;29.05;35.49;94830.31;5052526;28;20653;-74
2022/05/15 05:40:31;;;;;;;6.03;4.07;;;;;;;28.21;37.03;94832.91;5042211;28;20200;-73
2022/05/15 05:42:58;;;;;;;4.88;3.63;;;;;;;26.06;40.43;94836.91;5047665;28;20532;-74
2022/05/15 05:45:24;;;;;;;4.90;4.10;;;;;;;26.69;39.92;94837.00;5044798;28;20647;-76
2022/05/15 05:47:52;;;;;;;6.13;4.38;;;;;;;27.92;38.18;94820.88;5041427;28;20250;-77
2022/05/15 05:50:21;;;;;;;9.57;4.53;;;;;;;26.76;40.68;94828.53;5048879;28;20361;-77
2022/05/15 05:52:48;;;;;;;5.35;4.35;;;;;;;27.67;38.63;94829.03;5047606;28;20283;-77
2022/05/15 05:55:19;;;;;;;6.22;3.88;;;;;;;27.71;38.99;94826.97;5049475;28;20192;-80
2022/05/15 05:57:46;;;;;;;6.63;3.80;;;;;;;26.29;39.90;94840.91;5049146;28;20246;-72
2022/05/15 06:00:18;;;;;;;7.60;3.10;;;;;;;25.47;41.49;94840.16;5048343;28;20277;-80
2022/05/15 06:02:45;;;;;;;6.35;3.38;;;;;;;26.80;40.23;94834.78;5051666;28;20702;-81
2022/05/15 06:05:11;;;;;;;5.28;3.53;;;;;;;26.38;39.71;94832.81;5051060;28;20211;-78
2022/05/15 06:07:38;;;;;;;5.15;3.40;;;;;;;26.86;38.56;94827.53;5051469;28;20192;-80
2022/05/15 06:10:07;;;;;;;6.45;3.65;;;;;;;27.15;39.02;94826.97;5048372;28;20287;-75
2022/05/15 06:12:36;;;;;;;6.57;3.53;;;;;;;26.36;40.50;94830.47;5051108;28;20250;-76
2022/05/15 06:15:03;;;;;;;4.53;3.40;;;;;;;24.69;43.61;94835.59;5048334;28;20538;-82
2022/05/15 06:17:30;;;;;;;5.63;3.50;;;;;;;24.60;42.85;94838.06;5050584;28;20223;-82
2022/05/15 06:19:57;;;;;;;5.07;2.92;;;;;;;24.36;42.94;94839.91;5043038;28;20196;-79
2022/05/15 06:22:24;;;;;;;4.70;3.00;;;;;;;25.11;41.50;94841.88;5051362;28;20200;-77
2022/05/15 06:24:51;;;;;;;4.22;2.75;;;;;;;24.45;42.20;94842.19;5051350;28;20196;-77
2022/05/15 06:27:18;;;;;;;4.25;2.85;;;;;;;24.45;42.63;94842.19;5051412;28;20613;-79
2022/05/15 06:29:46;;;;;;;6.05;3.00;;;;;;;23.77;44.17;94844.75;5051132;28;20222;-84
2022/05/15 06:32:13;;;;;;;6.07;2.80;;;;;;;24.20;43.59;94844.38;5050707;28;20223;-76
2022/05/15 06:34:40;;;;;;;9.32;3.78;;;;;;;23.59;44.87;94841.31;5050219;28;20216;-78
2022/05/15 06:37:07;;;;;;;6.82;3.17;;;;;;;22.32;48.53;94851.69;5048138;28;20725;-77
2022/05/15 06:39:34;;;;;;;7.38;3.53;;;;;;;22.00;48.60;94851.72;5048363;28;20211;-73
2022/05/15 06:42:01;;;;;;;3.78;2.67;;;;;;;22.34;45.87;94857.59;5048200;28;20237;-74
2022/05/15 06:44:28;;;;;;;3.03;2.45;;;;;;;22.39;45.03;94851.69;5050374;28;20207;-78
2022/05/15 06:46:57;;;;;;;3.00;2.20;;;;;;;22.34;43.76;94850.09;5047577;28;20250;-79
2022/05/15 06:49:24;;;;;;;7.50;2.60;;;;;;;21.84;47.12;94843.81;5049987;28;20246;-79
2022/05/15 06:51:51;;;;;;;5.45;3.00;;;;;;;22.62;46.13;94860.28;5049367;28;20204;-77
2022/05/15 06:54:18;;;;;;;3.78;2.75;;;;;;;22.89;46.48;94857.06;5050096;28;20663;-81
2022/05/15 06:59:29;;;;;;;4.63;2.70;;;;;;;24.30;41.83;94854.63;5050646;28;20203;-74
2022/05/15 07:01:57;;;;;;;4.43;2.47;;;;;;;24.93;38.29;94846.81;5050381;28;20227;-76
2022/05/15 07:04:24;;;;;;;4.63;2.78;;;;;;;24.92;39.51;94845.22;5037466;28;20224;-77
2022/05/15 07:06:51;;;;;;;3.28;2.33;;;;;;;25.29;39.13;94834.06;5047188;28;20199;-75
2022/05/15 07:09:17;;;;;;;3.28;2.42;;;;;;;24.87;39.36;94842.94;5046518;28;20192;-76
2022/05/15 07:11:44;;;;;;;3.38;2.40;;;;;;;24.27;40.58;94847.13;5049427;28;20287;-77
2022/05/15 07:14:11;;;;;;;4.60;2.72;;;;;;;23.51;41.29;94853.59;5046203;28;20216;-74
2022/05/15 07:16:39;;;;;;;3.88;2.60;;;;;;;23.16;42.81;94860.91;5049134;28;20230;-82
2022/05/15 07:19:08;;;;;;;4.57;2.28;;;;;;;22.80;42.95;94845.66;5049453;28;20733;-79
2022/05/15 07:21:35;;;;;;;3.60;2.67;;;;;;;23.36;42.08;94853.69;5050284;28;20207;-83
2022/05/15 07:24:01;;;;;;;6.35;2.13;;;;;;;23.61;41.55;94855.53;5050340;28;20207;-77
2022/05/15 07:26:28;;;;;;;6.30;2.58;;;;;;;24.38;41.07;94862.44;5036942;28;20707;-79
2022/05/15 07:28:55;;;;;;;2.92;1.95;;;;;;;24.71;40.89;94847.06;5042590;28;20837;-75
2022/05/15 07:31:22;;;;;;;3.17;2.42;;;;;;;25.12;39.61;94837.88;5046084;28;20205;-78
2022/05/15 07:33:50;;;;;;;3.08;2.50;;;;;;;24.74;40.96;94846.22;5041793;28;20224;-77
2022/05/15 07:36:19;;;;;;;5.70;2.85;;;;;;;23.84;43.44;94861.28;5042007;28;20602;-74
2022/05/15 07:38:45;;;;;;;4.53;2.75;;;;;;;23.95;42.81;94853.69;5039194;28;20889;-78
2022/05/15 07:41:13;;;;;;;4.28;2.35;;;;;;;23.58;42.84;94848.03;5033877;28;20327;-75
2022/05/15 07:43:40;;;;;;;10.55;2.50;;;;;;;24.18;41.10;94852.31;5047889;28;20799;-73
2022/05/15 07:46:07;;;;;;;2.58;2.17;;;;;;;24.29;40.94;94842.75;5048443;28;20348;-76
2022/05/15 07:48:34;;;;;;;4.55;2.20;;;;;;;22.69;44.36;94854.72;5049766;28;20642;-75
2022/05/15 07:51:01;;;;;;;5.28;2.50;;;;;;;22.88;44.19;94849.97;5049389;28;20214;-77
2022/05/15 07:53:29;;;;;;;3.33;2.15;;;;;;;22.31;43.45;94852.84;5039682;28;20201;-70
2022/05/15 07:55:59;;;;;;;2.17;1.90;;;;;;;21.83;44.26;94856.03;5042673;28;20212;-77
2022/05/15 07:58:26;;;;;;;3.45;2.00;;;;;;;21.86;43.18;94862.75;5029713;28;20557;-76
2022/05/15 08:00:54;;;;;;;2.03;1.58;;;;;;;21.27;43.84;94849.28;5043385;28;20231;-75
2022/05/15 08:03:22;;;;;;;2.28;1.80;;;;;;;21.79;44.68;94863.50;5050511;28;20635;-79
2022/05/15 08:08:35;;;;;;;4.35;2.58;;;;;;;22.35;42.22;94861.94;5036697;28;20200;-77
2022/05/15 08:11:02;;;;;;;3.15;2.15;;;;;;;21.60;43.90;94872.16;5049043;28;20208;-74
2022/05/15 08:13:30;;;;;;;4.10;3.03;;;;;;;21.83;44.02;94875.34;5036682;28;20232;-75
2022/05/15 08:15:57;;;;;;;3.60;2.20;;;;;;;21.52;44.17;94876.09;5048696;28;20718;-77
2022/05/15 08:23:58;;;;;;;3.25;2.25;;;;;;;21.38;45.87;94879.59;5043090;28;20242;-74
2022/05/15 08:26:26;;;;;;;3.42;2.00;;;;;;;21.58;44.46;94885.56;5042435;28;20302;-69
2022/05/15 08:28:53;;;;;;;3.80;1.98;;;;;;;21.53;44.45;94888.69;5036169;28;20586;-74
2022/05/15 08:31:21;;;;;;;3.80;2.22;;;;;;;22.00;44.41;94884.84;5036290;28;20290;-72
2022/05/15 08:33:49;;;;;;;2.00;1.63;;;;;;;21.42;43.18;94876.84;5036608;28;20207;-74
2022/05/15 08:36:16;;;;;;;3.22;1.90;;;;;;;21.33;42.74;94895.72;5049169;28;20227;-77
2022/05/15 08:38:44;;;;;;;5.53;1.75;;;;;;;;;;5049251;28;20670;-77
2022/05/15 08:41:18;;;;;;;3.55;2.33;;;;;;;21.67;42.62;94893.44;5047242;28;20203;-81
2022/05/15 08:43:51;;;;;;;2.90;1.60;;;;;;;22.13;43.05;94888.00;5047753;28;20522;-78
2022/05/15 08:46:35;;;;;;;3.92;2.33;;;;;;;22.20;41.58;94890.72;5051152;28;20235;-79
2022/05/15 08:49:11;;;;;;;2.92;1.92;;;;;;;21.68;42.72;94895.03;5039819;28;20210;-80
2022/05/15 08:51:43;;;;;;;3.42;2.08;;;;;;;21.62;41.81;94889.88;5046765;28;20476;-73
2022/05/15 08:54:12;;;;;;;2.50;2.00;;;;;;;21.93;40.89;94896.63;5049133;28;20235;-75
2022/05/15 08:56:47;;;;;;;5.50;2.40;;;;;;;22.19;42.05;94880.88;5048691;28;20234;-74
2022/05/15 08:59:21;;;;;;;4.07;2.00;;;;;;;22.47;41.27;94880.03;5053126;28;20226;-79
2022/05/15 09:01:52;;;;;;;3.13;1.75;;;;;;;22.50;40.63;94882.81;5052748;28;20246;-79
2022/05/15 09:04:19;;;;;;;5.47;3.17;;;;;;;22.62;41.15;94887.91;5052582;28;20196;-83
2022/05/15 09:06:57;;;;;;;7.43;2.33;;;;;;;23.21;39.89;94879.84;5053091;28;20192;-79
2022/05/15 09:09:34;;;;;;;6.43;1.88;;;;;;;22.96;39.42;94882.69;5049954;28;21018;-82
2022/05/15 09:12:11;;;;;;;2.58;1.77;;;;;;;22.98;38.12;94885.84;5049440;28;20224;-81
2022/05/15 09:14:47;;;;;;;4.65;1.90;;;;;;;23.11;39.20;94877.09;5043678;28;20180;-80
2022/05/15 09:17:22;;;;;;;2.63;1.80;;;;;;;23.25;37.77;94874.28;5044242;28;20219;-74
2022/05/15 09:19:52;;;;;;;6.40;2.13;;;;;;;23.17;38.21;94862.47;5044586;28;20274;-80
2022/05/15 09:22:19;;;;;;;3.58;1.80;;;;;;;23.35;37.25;94863.19;5041259;28;20566;-71
2022/05/15 09:24:51;;;;;;;2.95;1.75;;;;;;;23.64;37.65;94869.31;5053232;28;20672;-71
2022/05/15 09:27:22;;;;;;;2.58;1.52;;;;;;;23.30;36.98;94860.81;5052809;28;20254;-73
2022/05/15 09:29:54;;;;;;;3.17;1.70;;;;;;;23.32;37.78;94868.72;5052355;28;20219;-76
2022/05/15 09:32:36;;;;;;;2.80;2.10;;;;;;;23.99;36.64;94873.81;5052192;28;20299;-81
2022/05/15 09:35:05;;;;;;;1.25;1.08;;;;;;;23.18;36.20;94864.03;5051656;28;20892;-73
2022/05/15 09:40:24;;;;;;;1.70;1.60;;;;;;;23.42;36.82;94861.53;5050042;28;20605;-77
2022/05/15 09:45:54;;;;;;;1.90;1.60;;;;;;;23.45;37.14;94880.09;5058386;28;20231;-76
2022/05/15 09:48:24;;;;;;;5.40;1.98;;;;;;;23.34;37.47;94861.59;5047100;28;20219;-73
2022/05/15 09:50:59;;;;;;;2.53;1.23;;;;;;;23.14;37.34;94863.28;5052026;28;20277;-73
2022/05/15 09:53:38;;;;;;;3.13;2.00;;;;;;;23.30;37.03;94855.28;5052191;28;20254;-74
2022/05/15 09:56:08;;;;;;;4.43;1.90;;;;;;;24.03;37.21;94846.91;5050696;28;20245;-74
2022/05/15 09:58:46;;;;;;;3.65;2.15;;;;;;;23.65;37.28;94850.75;5048830;28;20656;-77
2022/05/15 10:01:27;;;;;;;3.83;1.85;;;;;;;24.24;35.89;94847.94;5045876;28;20269;-77
2022/05/15 10:03:57;;;;;;;2.92;2.22;;;;;;;24.03;36.85;94857.97;5051635;28;20282;-74
2022/05/15 10:06:28;;;;;;;4.40;2.10;;;;;;;23.55;35.21;94848.84;5048463;28;20651;-73
2022/05/15 10:09:14;;;;;;;2.17;1.65;;;;;;;23.77;36.38;94858.59;5046815;28;20554;-76
2022/05/15 10:11:45;;;;;;;7.30;3.13;;;;;;;24.67;35.44;94846.31;5048979;28;20218;-77
2022/05/15 10:14:29;;;;;;;3.38;1.70;;;;;;;24.34;34.95;94855.34;5047959;28;20187;-75
2022/05/15 10:16:57;;;;;;;3.55;2.17;;;;;;;23.75;36.39;94844.38;5051359;28;20212;-77
2022/05/15 10:19:38;;;;;;;2.25;1.98;;;;;;;23.90;33.21;94856.91;5041215;28;20197;-73
2022/05/15 10:22:14;;;;;;;6.90;1.75;;;;;;;24.18;35.18;94857.88;5049910;28;20933;-73
2022/05/15 10:24:46;;;;;;;9.05;5.30;;;;;;;24.88;35.29;94859.13;5051165;28;20215;-75
2022/05/15 10:27:17;;;;;;;3.10;1.88;;;;;;;23.99;35.29;94851.69;5049114;28;20639;-72
2022/05/15 10:29:51;;;;;;;4.18;2.55;;;;;;;24.33;34.76;94853.78;5050270;28;20676;-71
2022/05/15 10:32:25;;;;;;;8.65;1.92;;;;;;;24.51;35.04;94854.38;5051582;28;20195;-76
2022/05/15 10:34:53;;;;;;;2.13;1.80;;;;;;;24.78;34.31;94841.44;5046490;28;20195;-74
2022/05/15 10:37:41;;;;;;;7.82;3.17;;;;;;;24.46;34.86;94841.00;5050952;28;20236;-72
2022/05/15 10:40:27;;;;;;;3.70;2.10;;;;;;;25.01;36.62;94842.78;5048752;28;20549;-74
2022/05/15 10:43:11;;;;;;;5.50;2.30;;;;;;;24.55;35.43;94849.59;5047607;28;20269;-73
2022/05/15 10:45:46;;;;;;;2.65;1.92;;;;;;;24.60;34.30;94845.59;5046524;28;20235;-74
2022/05/15 10:48:45;;;;;;;4.13;2.42;;;;;;;24.75;34.72;94842.25;5045848;28;20184;-73
2022/05/15 10:51:19;;;;;;;2.42;1.60;;;;;;;24.77;33.32;94839.84;5047944;28;20715;-77
2022/05/15 10:57:24;;;;;;;4.38;1.70;;;;;;;24.71;35.03;94841.53;4990026;28;20256;-77
2022/05/15 10:59:56;;;;;;;3.85;1.90;;;;;;;24.93;35.64;94836.53;5040965;28;20231;-81
2022/05/15 11:02:44;;;;;;;2.78;1.80;;;;;;;25.11;36.03;94836.31;5048531;28;20275;-81
2022/05/15 11:05:21;;;;;;;3.25;2.00;;;;;;;25.36;35.90;94825.66;5044353;28;20242;-81
2022/05/15 11:07:53;;;;;;;4.25;1.60;;;;;;;24.98;33.85;94829.75;5039376;28;20211;-79
2022/05/15 11:10:26;;;;;;;2.67;1.67;;;;;;;25.12;34.95;94826.81;5051307;28;20228;-82
2022/05/15 11:13:03;;;;;;;4.25;1.85;;;;;;;25.37;34.36;94820.91;5041822;28;20206;-79
2022/05/15 11:15:49;;;;;;;1.90;1.70;;;;;;;25.44;33.34;94821.56;5049230;28;20199;-79
2022/05/15 11:18:39;;;;;;;1.95;1.60;;;;;;;24.78;34.34;94830.34;5050399;28;20230;-81
2022/05/15 11:21:11;;;;;;;3.25;1.80;;;;;;;25.31;34.43;94820.56;5041708;28;20196;-80
2022/05/15 11:23:43;;;;;;;4.28;2.00;;;;;;;25.61;35.40;94813.41;5038111;28;20223;-81
2022/05/15 11:26:17;;;;;;;3.78;1.75;;;;;;;25.92;33.88;94808.59;5039215;28;20197;-78
2022/05/15 11:28:48;;;;;;;3.38;1.50;;;;;;;25.59;33.62;94818.59;5037669;28;20646;-78
2022/05/15 11:31:20;;;;;;;2.20;1.88;;;;;;;25.82;34.90;94813.91;5050851;28;20191;-81
2022/05/15 11:33:54;;;;;;;3.28;1.90;;;;;;;25.10;35.38;94812.56;5039408;28;20199;-77
2022/05/15 11:36:37;;;;;;;4.22;2.10;;;;;;;25.47;36.19;94803.31;5038200;28;20788;-81
2022/05/15 11:39:08;;;;;;;1.75;1.65;;;;;;;25.57;35.36;94804.34;5051005;28;20238;-81
2022/05/15 11:44:46;;;;;;;6.85;2.30;;;;;;;25.54;35.87;94799.66;5058720;28;20202;-78
2022/05/15 11:47:34;;;;;;;2.20;2.00;;;;;;;24.94;35.01;94810.38;5051269;28;20195;-77
2022/05/15 11:50:15;;;;;;;5.25;2.58;;;;;;;25.27;35.42;94806.00;5039774;28;20226;-80
2022/05/15 11:53:04;;;;;;;4.70;2.58;;;;;;;26.12;35.14;94787.22;5050176;28;20191;-81
2022/05/15 11:55:44;;;;;;;5.25;3.22;;;;;;;26.52;35.11;94788.88;5037443;28;20200;-80
2022/05/15 11:58:26;;;;;;;1.88;1.77;;;;;;;26.61;35.66;94787.53;5041374;28;20303;-81
2022/05/15 12:01:09;;;;;;;4.15;2.10;;;;;;;26.61;34.22;94788.31;5044531;28;20702;-79
2022/05/15 12:03:55;;;;;;;2.70;2.13;;;;;;;26.81;35.62;94782.75;5043897;28;20518;-81
2022/05/15 12:06:26;;;;;;;5.47;2.70;;;;;;;26.86;34.84;94785.81;5040436;28;20199;-81
2022/05/15 12:09:33;;;;;;;4.50;2.53;;;;;;;25.38;36.41;94787.19;5050264;28;20196;-73
2022/05/15 12:12:36;;;;;;;3.47;2.25;;;;;;;24.83;38.41;94804.16;5037915;28;20203;-81
2022/05/15 12:15:08;;;;;;;3.13;2.50;;;;;;;24.88;37.83;94789.03;5036926;28;20319;-78